San Clemente Island, California
Current Conditions -  °F | °C
As of 9:51 PM on Friday 19 Dec 2014 (Local Time) from KAVX Reporting Station
Scattered Clouds Scattered Clouds  
Wind Chill: 51°   Ceiling: Unl
Heat Index: 51°   Visibility: 10mi
Dew Point: 48°   Wind: 12mph
Humidity: 89%   Direction: 280°W
Pressure: 30.21"   Gusts: NA
Location:  33.02°N, 118.58°W
Report Text: KAVX 200551Z AUTO 28010KT 10SM SCT003 11/09 A3021 RMK AO2 SLP228 T01060089 10122 20100 53004
Loading
Personal Weather Stations






























Interactive Weather Map New forecast layout! Learn more

10-Day Weather Forecast

Advertisements
Track Severe Weather on mobile